Time;durP1;ratioP1;P1;durP2;ratioP2;P2;SDS_P1;SDS_P2;PMS_P1;PMS_P2;Temp;Humidity;BMP_temperature;BMP_pressure;BME280_temperature;BME280_humidity;BME280_pressure;Samples;Min_cycle;Max_cycle;Signal;HPM_P1;HPM_P2
2022/06/06 00:00:13;;;;;;;2.93;2.80;;;;;;;14.16;100.00;97102.13;4851327;29;20252;-54
2022/06/06 00:02:41;;;;;;;3.37;2.40;;;;;;;14.10;100.00;97118.94;4826485;29;23973;-54
2022/06/06 00:05:14;;;;;;;3.33;2.83;;;;;;;13.94;100.00;97122.84;4832803;29;20682;-53
2022/06/06 00:07:42;;;;;;;2.87;2.67;;;;;;;13.94;100.00;97118.34;4817604;29;21192;-49
2022/06/06 00:10:10;;;;;;;2.63;2.53;;;;;;;13.83;100.00;97118.97;4845670;29;20297;-57
2022/06/06 00:12:39;;;;;;;2.90;2.80;;;;;;;13.80;100.00;97120.19;4814914;29;20356;-55
2022/06/06 00:15:11;;;;;;;3.13;2.83;;;;;;;13.67;100.00;97118.38;4850980;29;20221;-57
2022/06/06 00:17:39;;;;;;;3.40;2.80;;;;;;;13.68;100.00;97122.69;4849434;29;20450;-53
2022/06/06 00:20:09;;;;;;;3.40;2.83;;;;;;;13.59;100.00;97121.22;4808738;29;20783;-55
2022/06/06 00:22:37;;;;;;;2.80;2.70;;;;;;;13.53;100.00;97120.22;4800944;29;20801;-53
2022/06/06 00:25:07;;;;;;;2.87;2.50;;;;;;;13.49;100.00;97123.47;4846444;29;20644;-55
2022/06/06 00:27:35;;;;;;;2.97;2.73;;;;;;;13.38;100.00;97122.19;4844737;29;20249;-52
2022/06/06 00:30:04;;;;;;;2.63;2.40;;;;;;;13.51;100.00;97129.41;4808048;29;20229;-47
2022/06/06 00:35:34;;;;;;;3.30;2.67;;;;;;;13.57;100.00;97137.41;4758929;29;20260;-53
2022/06/06 00:38:03;;;;;;;3.20;2.90;;;;;;;13.47;100.00;97145.00;4732304;29;20639;-53
2022/06/06 00:40:31;;;;;;;3.83;2.97;;;;;;;13.42;100.00;97139.41;4793741;29;21445;-51
2022/06/06 00:43:00;;;;;;;3.07;2.90;;;;;;;13.27;100.00;97137.75;4792551;29;20330;-53
2022/06/06 00:45:32;;;;;;;3.97;3.10;;;;;;;13.39;100.00;97130.00;4759759;29;20720;-51
2022/06/06 00:48:09;;;;;;;3.70;3.50;;;;;;;13.32;100.00;97132.63;4795209;29;20883;-51
2022/06/06 00:50:45;;;;;;;3.50;3.30;;;;;;;13.28;100.00;97133.25;4773192;29;20334;-52
2022/06/06 00:53:16;;;;;;;3.40;3.20;;;;;;;13.20;100.00;97139.59;4762456;29;21383;-55
2022/06/06 00:55:47;;;;;;;3.33;3.23;;;;;;;13.07;100.00;97135.06;4792984;29;20325;-58
2022/06/06 00:58:18;;;;;;;3.50;3.30;;;;;;;13.00;100.00;97136.88;4793665;29;20247;-53
2022/06/06 01:00:48;;;;;;;2.93;2.83;;;;;;;12.93;100.00;97138.72;4756453;29;20442;-51
2022/06/06 01:03:20;;;;;;;3.47;3.27;;;;;;;12.88;100.00;97139.31;4799645;29;20302;-51
2022/06/06 01:05:50;;;;;;;3.27;3.03;;;;;;;12.72;100.00;97140.47;4794858;29;20307;-57
2022/06/06 01:08:21;;;;;;;3.60;3.40;;;;;;;12.66;100.00;97131.44;4821090;29;20267;-55
2022/06/06 01:10:49;;;;;;;3.50;3.30;;;;;;;12.73;100.00;97140.28;4813010;29;20345;-53
2022/06/06 01:13:19;;;;;;;3.77;3.47;;;;;;;12.73;100.00;97136.78;4852062;29;20239;-50
2022/06/06 01:16:07;;;;;;;3.33;3.23;;;;;;;12.63;100.00;97147.78;4809013;29;20648;-56
2022/06/06 01:18:47;;;;;;;3.80;3.37;;;;;;;12.60;100.00;97153.50;4849418;29;20222;-56
2022/06/06 01:21:38;;;;;;;3.67;3.40;;;;;;;12.52;100.00;97154.50;4826326;29;20234;-48
2022/06/06 01:24:30;;;;;;;3.33;3.13;;;;;;;12.50;100.00;97156.53;4791101;29;21299;-55
2022/06/06 01:27:13;;;;;;;3.63;3.40;;;;;;;12.48;100.00;97157.75;4843871;29;20278;-52
2022/06/06 01:29:46;;;;;;;3.20;3.00;;;;;;;12.45;100.00;97150.97;4811941;29;20676;-54
2022/06/06 01:32:15;;;;;;;3.50;3.30;;;;;;;12.38;100.00;97148.31;4845559;29;20417;-56
2022/06/06 01:34:48;;;;;;;3.40;3.20;;;;;;;12.36;100.00;97149.50;4849183;29;20553;-50
2022/06/06 01:37:31;;;;;;;4.03;3.20;;;;;;;12.40;100.00;97142.78;4799770;29;20225;-57
2022/06/06 01:40:01;;;;;;;3.03;2.83;;;;;;;12.24;100.00;97139.44;4815042;29;20309;-50
2022/06/06 01:42:34;;;;;;;3.30;3.10;;;;;;;12.20;100.00;97142.66;4843363;29;20341;-51
2022/06/06 01:45:07;;;;;;;4.17;3.77;;;;;;;12.22;100.00;97140.63;4814408;29;20227;-56
2022/06/06 01:47:39;;;;;;;4.53;4.13;;;;;;;12.16;100.00;97143.06;4850354;29;20238;-51
2022/06/06 01:50:08;;;;;;;5.00;4.60;;;;;;;12.11;100.00;97145.47;4846455;29;20240;-55
2022/06/06 01:52:55;;;;;;;3.90;3.60;;;;;;;12.12;100.00;97146.28;4823876;29;21145;-54
2022/06/06 01:55:25;;;;;;;5.20;4.80;;;;;;;12.13;100.00;97142.66;4821901;29;20277;-52
2022/06/06 01:57:58;;;;;;;5.00;4.53;;;;;;;12.03;100.00;97148.28;4853672;29;20214;-54
2022/06/06 02:00:29;;;;;;;4.20;3.90;;;;;;;12.02;100.00;97144.00;4807552;29;20406;-57
2022/06/06 02:02:57;;;;;;;3.87;3.67;;;;;;;12.00;100.00;97138.03;4849474;29;20238;-54
2022/06/06 02:05:26;;;;;;;3.40;3.20;;;;;;;11.95;100.00;97143.91;4846924;29;20222;-52
2022/06/06 02:07:54;;;;;;;4.13;3.87;;;;;;;12.00;100.00;97135.38;4847894;29;20298;-53
2022/06/06 02:10:23;;;;;;;4.03;3.83;;;;;;;12.28;100.00;97139.84;4787815;29;20412;-56
2022/06/06 02:12:51;;;;;;;3.90;3.70;;;;;;;12.39;100.00;97141.97;4847130;29;20321;-56
2022/06/06 02:15:23;;;;;;;4.50;4.20;;;;;;;12.41;100.00;97139.94;4807221;29;20547;-53
2022/06/06 02:17:54;;;;;;;4.20;4.00;;;;;;;12.41;100.00;97139.09;4848958;29;20210;-50
2022/06/06 02:20:25;;;;;;;4.30;4.10;;;;;;;12.45;100.00;97135.88;4843276;29;20246;-51
2022/06/06 02:22:54;;;;;;;4.60;4.30;;;;;;;12.47;100.00;97138.31;4845065;29;20227;-50
2022/06/06 02:25:23;;;;;;;5.50;5.00;;;;;;;12.44;100.00;97144.03;4819688;29;20240;-49
2022/06/06 02:27:51;;;;;;;4.93;4.63;;;;;;;12.43;100.00;97145.88;4801190;29;20401;-54
2022/06/06 02:30:27;;;;;;;4.77;4.40;;;;;;;12.25;100.00;97148.22;4848966;29;20619;-54
2022/06/06 02:32:57;;;;;;;4.80;4.40;;;;;;;12.20;100.00;97142.66;4805474;29;20250;-54
2022/06/06 02:35:30;;;;;;;4.90;4.47;;;;;;;12.33;100.00;97150.72;4846953;29;20719;-54
2022/06/06 02:37:59;;;;;;;5.77;5.37;;;;;;;12.20;100.00;97148.81;4843271;29;20222;-54
2022/06/06 02:40:28;;;;;;;5.93;5.43;;;;;;;12.28;100.00;97155.78;4819826;29;20226;-50
2022/06/06 02:42:57;;;;;;;6.17;5.67;;;;;;;12.10;100.00;97156.28;4812805;29;20375;-54
2022/06/06 02:45:25;;;;;;;5.27;4.73;;;;;;;12.11;100.00;97160.59;4844651;29;20237;-57
2022/06/06 02:47:58;;;;;;;4.47;4.17;;;;;;;12.07;100.00;97159.34;4816174;29;20465;-52
2022/06/06 02:50:29;;;;;;;6.53;4.40;;;;;;;12.22;100.00;97162.72;4842051;29;20585;-55
2022/06/06 02:52:58;;;;;;;5.80;5.40;;;;;;;12.23;100.00;97168.84;4846002;29;20285;-54
2022/06/06 02:55:27;;;;;;;4.70;4.40;;;;;;;12.19;100.00;97172.91;4823781;29;20241;-53
2022/06/06 02:57:55;;;;;;;5.40;5.00;;;;;;;12.14;100.00;97170.84;4814268;29;20740;-52
2022/06/06 03:00:26;;;;;;;4.90;4.57;;;;;;;12.09;100.00;97168.75;4850086;29;20354;-56
2022/06/06 03:02:56;;;;;;;4.90;4.60;;;;;;;11.95;100.00;97169.66;4812076;29;20235;-55
2022/06/06 03:05:36;;;;;;;5.03;4.63;;;;;;;12.03;100.00;97180.16;4828039;29;20213;-52
2022/06/06 03:08:13;;;;;;;4.63;4.30;;;;;;;11.95;100.00;97178.44;4845616;29;20269;-49
2022/06/06 03:10:51;;;;;;;4.60;4.13;;;;;;;11.99;100.00;97186.84;4822592;29;20229;-56
2022/06/06 03:13:29;;;;;;;4.97;4.67;;;;;;;12.09;100.00;97181.19;4812853;29;20320;-56
2022/06/06 03:21:57;;;;;;;5.17;4.67;;;;;;;12.42;100.00;97186.75;4840647;29;20242;-55
2022/06/06 03:24:32;;;;;;;5.33;4.93;;;;;;;12.33;100.00;97198.56;4847293;29;20233;-53
2022/06/06 03:27:13;;;;;;;5.13;4.50;;;;;;;12.40;100.00;97195.91;4792442;29;20666;-57
2022/06/06 03:29:54;;;;;;;4.83;4.43;;;;;;;12.34;100.00;97197.53;4843514;29;20230;-53
2022/06/06 03:32:29;;;;;;;4.37;4.10;;;;;;;12.10;100.00;97198.78;4843531;29;20433;-54
2022/06/06 03:35:06;;;;;;;4.87;4.47;;;;;;;12.18;100.00;97205.78;4810412;29;20262;-52
2022/06/06 03:37:38;;;;;;;5.03;4.30;;;;;;;12.12;100.00;97210.88;4828245;29;20228;-56
2022/06/06 03:40:14;;;;;;;4.53;4.17;;;;;;;12.02;100.00;97205.06;4848646;29;20442;-55
2022/06/06 03:42:53;;;;;;;4.50;4.20;;;;;;;11.96;100.00;97205.81;4818019;29;20230;-56
2022/06/06 03:45:26;;;;;;;4.57;4.27;;;;;;;11.91;100.00;97211.69;4839049;29;20217;-55
2022/06/06 03:48:03;;;;;;;5.23;4.50;;;;;;;11.95;100.00;97215.59;4845489;29;20302;-55
2022/06/06 03:50:39;;;;;;;5.13;3.97;;;;;;;11.98;100.00;97219.72;4808158;29;20233;-54
2022/06/06 03:53:12;;;;;;;4.90;4.50;;;;;;;12.19;100.00;97226.03;4806201;29;20697;-54
2022/06/06 03:55:51;;;;;;;4.83;4.53;;;;;;;12.45;100.00;97225.38;4845751;29;20490;-49
2022/06/06 03:58:22;;;;;;;5.30;4.90;;;;;;;12.49;100.00;97231.13;4799993;29;20305;-55
2022/06/06 04:00:52;;;;;;;5.83;5.03;;;;;;;12.53;100.00;97224.41;4841066;29;20246;-52
2022/06/06 04:03:21;;;;;;;5.70;5.20;;;;;;;12.57;100.00;97229.16;4847965;29;20493;-53
2022/06/06 04:05:49;;;;;;;5.33;4.80;;;;;;;12.80;100.00;97232.53;4813057;29;20245;-54
2022/06/06 04:08:19;;;;;;;5.57;5.07;;;;;;;12.95;100.00;97225.22;4824237;29;20218;-54
2022/06/06 04:10:54;;;;;;;5.70;5.30;;;;;;;13.04;100.00;97231.22;4850423;29;20492;-52
2022/06/06 04:13:41;;;;;;;5.40;5.00;;;;;;;13.15;100.00;97235.16;4796065;29;20325;-56
2022/06/06 04:16:24;;;;;;;5.77;5.30;;;;;;;13.09;100.00;97233.28;4850375;29;20265;-54
2022/06/06 04:19:01;;;;;;;5.23;4.90;;;;;;;13.07;100.00;97240.63;4846851;29;20717;-52
2022/06/06 04:21:38;;;;;;;5.73;5.10;;;;;;;13.23;100.00;97242.94;4780322;29;20331;-51
2022/06/06 04:24:26;;;;;;;5.57;5.13;;;;;;;13.17;100.00;97236.56;4834131;29;20224;-55
2022/06/06 04:26:59;;;;;;;5.43;5.03;;;;;;;13.33;100.00;97237.25;4850127;29;20268;-56
2022/06/06 04:29:34;;;;;;;5.43;4.97;;;;;;;13.31;100.00;97229.44;4796812;29;20229;-56
2022/06/06 04:32:07;;;;;;;4.90;4.50;;;;;;;13.24;100.00;97227.78;4850156;29;20249;-56
2022/06/06 04:34:40;;;;;;;4.70;4.40;;;;;;;13.42;100.00;97229.88;4845851;29;20324;-51
2022/06/06 04:37:11;;;;;;;5.13;4.63;;;;;;;13.58;100.00;97232.22;4812857;29;20309;-48
2022/06/06 04:39:47;;;;;;;7.97;5.27;;;;;;;13.62;100.00;97237.94;4844739;29;20221;-52
2022/06/06 04:42:21;;;;;;;6.27;5.27;;;;;;;13.65;100.00;97240.22;4852891;29;21059;-52
2022/06/06 04:44:55;;;;;;;5.93;5.43;;;;;;;13.63;100.00;97236.91;4791337;29;20217;-55
2022/06/06 04:47:29;;;;;;;9.37;6.10;;;;;;;13.73;100.00;97228.53;4848986;29;20249;-53
2022/06/06 04:49:58;;;;;;;6.00;5.60;;;;;;;13.89;100.00;97236.16;4847583;29;20484;-53
2022/06/06 04:52:27;;;;;;;7.70;5.43;;;;;;;13.85;100.00;97231.44;4816490;29;20261;-51
2022/06/06 04:54:57;;;;;;;5.57;5.10;;;;;;;14.07;100.00;97234.72;4824490;29;20244;-55
2022/06/06 04:57:26;;;;;;;5.83;5.43;;;;;;;14.13;100.00;97238.41;4854790;29;20217;-53
2022/06/06 04:59:57;;;;;;;5.87;5.47;;;;;;;14.20;100.00;97228.56;4825577;29;20336;-53
2022/06/06 05:02:26;;;;;;;6.40;5.90;;;;;;;14.15;100.00;97229.16;4822551;29;20239;-49
2022/06/06 05:04:54;;;;;;;5.70;5.30;;;;;;;14.48;100.00;97238.19;4848579;29;21094;-56
2022/06/06 05:07:32;;;;;;;5.60;5.20;;;;;;;14.55;100.00;97238.97;4812490;29;20354;-54
2022/06/06 05:10:13;;;;;;;5.53;5.20;;;;;;;14.55;100.00;97238.16;4844049;29;22288;-56
2022/06/06 05:13:00;;;;;;;5.50;5.10;;;;;;;14.85;100.00;97237.69;4847132;29;20230;-59
2022/06/06 05:15:38;;;;;;;4.43;4.13;;;;;;;14.96;100.00;97237.03;4827649;29;20317;-56
2022/06/06 05:18:32;;;;;;;4.40;4.20;;;;;;;15.01;100.00;97234.59;4815782;29;20392;-54
2022/06/06 05:21:10;;;;;;;4.43;4.13;;;;;;;14.95;100.00;97237.25;4821622;29;20661;-54
2022/06/06 05:23:54;;;;;;;4.73;4.43;;;;;;;14.94;100.00;97235.63;4815301;29;20340;-52
2022/06/06 05:26:44;;;;;;;4.27;3.97;;;;;;;15.01;100.00;97239.91;4828083;29;20297;-56
2022/06/06 05:29:29;;;;;;;4.83;4.47;;;;;;;15.08;100.00;97231.06;4848242;29;20289;-53
2022/06/06 05:32:23;;;;;;;4.00;3.80;;;;;;;15.19;100.00;97235.72;4824963;29;20344;-57
2022/06/06 05:34:59;;;;;;;4.50;4.10;;;;;;;15.23;100.00;97230.78;4851947;29;20218;-52
2022/06/06 05:37:36;;;;;;;4.47;4.17;;;;;;;15.51;100.00;97229.59;4815637;29;21039;-53
2022/06/06 05:40:16;;;;;;;5.00;4.60;;;;;;;15.74;100.00;97226.41;4851881;29;20678;-54
2022/06/06 05:43:04;;;;;;;4.93;4.50;;;;;;;15.74;100.00;97224.53;4834312;29;20645;-56
2022/06/06 05:45:39;;;;;;;4.50;4.20;;;;;;;15.81;100.00;97229.00;4831097;29;21352;-54
2022/06/06 05:48:28;;;;;;;4.43;4.20;;;;;;;15.80;100.00;97233.53;4834901;29;20225;-56
2022/06/06 05:51:11;;;;;;;4.63;4.40;;;;;;;15.98;100.00;97227.47;4853288;29;20331;-53
2022/06/06 05:54:02;;;;;;;4.20;3.80;;;;;;;16.03;100.00;97229.47;4820425;29;24149;-53
2022/06/06 05:56:45;;;;;;;5.20;4.80;;;;;;;16.20;100.00;97227.09;4833748;29;21005;-54
2022/06/06 05:59:27;;;;;;;4.60;4.30;;;;;;;16.31;100.00;97215.69;4830906;29;20298;-56
2022/06/06 06:02:07;;;;;;;4.10;3.90;;;;;;;16.33;100.00;97228.81;4806568;29;20476;-51
2022/06/06 06:04:53;;;;;;;4.20;3.80;;;;;;;16.61;100.00;97224.84;4822370;29;20733;-52
2022/06/06 06:07:27;;;;;;;4.93;4.53;;;;;;;17.09;100.00;97227.84;4837804;29;20221;-54
2022/06/06 06:10:06;;;;;;;4.80;4.40;;;;;;;17.13;100.00;97219.16;4816678;29;20966;-54
2022/06/06 06:12:49;;;;;;;5.20;4.87;;;;;;;16.90;100.00;97222.50;4848490;29;20277;-56
2022/06/06 06:15:24;;;;;;;4.83;4.23;;;;;;;16.87;100.00;97220.28;4852838;29;20292;-55
2022/06/06 06:17:54;;;;;;;5.17;4.87;;;;;;;17.24;100.00;97211.41;4829310;29;20214;-52
2022/06/06 06:20:26;;;;;;;4.70;4.50;;;;;;;17.44;100.00;97213.81;4827374;29;20237;-53
2022/06/06 06:22:57;;;;;;;5.40;4.97;;;;;;;17.64;100.00;97211.66;4849878;29;20238;-54
2022/06/06 06:25:26;;;;;;;4.40;4.17;;;;;;;17.69;100.00;97216.31;4820082;29;20322;-54
2022/06/06 06:27:59;;;;;;;4.53;4.23;;;;;;;17.67;100.00;97217.63;4847115;29;20214;-55
2022/06/06 06:30:33;;;;;;;4.67;4.27;;;;;;;17.91;100.00;97221.16;4825518;29;20286;-53
2022/06/06 06:33:34;;;;;;;4.80;4.40;;;;;;;18.23;100.00;97216.31;4828682;29;21204;-52
2022/06/06 06:36:08;;;;;;;5.37;4.60;;;;;;;18.15;100.00;97216.66;4730724;29;20288;-55
2022/06/06 06:38:58;;;;;;;4.57;4.27;;;;;;;17.86;100.00;97218.34;4776428;29;20216;-54
2022/06/06 06:41:33;;;;;;;4.87;4.50;;;;;;;17.60;100.00;97204.31;4750226;29;20243;-56
2022/06/06 06:44:05;;;;;;;4.63;4.33;;;;;;;18.06;100.00;97210.03;4782228;29;21917;-53
2022/06/06 06:46:39;;;;;;;5.17;4.77;;;;;;;18.50;100.00;97204.31;4757878;29;20279;-53
2022/06/06 06:49:19;;;;;;;5.50;5.03;;;;;;;18.66;100.00;97210.81;4762875;29;20223;-53
2022/06/06 06:51:56;;;;;;;4.73;4.20;;;;;;;18.74;100.00;97213.13;4749447;29;20476;-52
2022/06/06 06:54:45;;;;;;;5.63;5.23;;;;;;;19.08;100.00;97202.59;4778506;29;20454;-60
2022/06/06 06:57:23;;;;;;;7.53;6.90;;;;;;;19.31;100.00;97202.72;4728230;29;20216;-58
2022/06/06 07:00:04;;;;;;;4.10;3.90;;;;;;;19.42;100.00;97198.38;4780175;29;20212;-57
2022/06/06 07:08:34;;;;;;;5.00;4.57;;;;;;;20.11;100.00;97192.03;4751786;29;20829;-58
2022/06/06 07:11:23;;;;;;;4.57;4.27;;;;;;;20.46;100.00;97190.13;4777088;29;20312;-56
2022/06/06 07:14:03;;;;;;;5.13;4.70;;;;;;;20.15;100.00;97195.84;4850046;29;20206;-55
2022/06/06 07:16:35;;;;;;;3.80;3.60;;;;;;;19.32;100.00;97196.31;4829985;29;20632;-58
2022/06/06 07:19:08;;;;;;;4.37;4.17;;;;;;;18.92;100.00;97195.25;4851181;29;20214;-55
2022/06/06 07:21:38;;;;;;;5.10;4.70;;;;;;;19.09;100.00;97201.53;4830576;29;20356;-56
2022/06/06 07:24:09;;;;;;;4.87;4.40;;;;;;;19.74;100.00;97198.69;4821764;29;20328;-60
2022/06/06 07:26:39;;;;;;;7.40;4.40;;;;;;;19.80;100.00;97202.25;4811121;29;21730;-53
2022/06/06 07:29:08;;;;;;;4.03;3.83;;;;;;;19.72;100.00;97202.66;4851554;29;20214;-56
2022/06/06 07:31:48;;;;;;;3.93;3.73;;;;;;;19.09;100.00;97206.91;4841960;29;20671;-58
2022/06/06 07:34:37;;;;;;;4.77;4.47;;;;;;;19.44;100.00;97209.69;4854056;29;20209;-59
2022/06/06 07:37:12;;;;;;;4.47;4.10;;;;;;;19.56;100.00;97207.78;4843597;29;20224;-53
2022/06/06 07:39:48;;;;;;;4.40;4.10;;;;;;;19.03;100.00;97197.13;4821860;29;20331;-59
2022/06/06 07:42:27;;;;;;;5.13;4.77;;;;;;;19.31;100.00;97192.00;4810307;29;20359;-58
2022/06/06 07:45:18;;;;;;;4.50;4.10;;;;;;;19.40;100.00;97192.44;4850490;29;20840;-55
2022/06/06 07:48:07;;;;;;;4.43;4.03;;;;;;;19.51;100.00;97188.88;4828093;29;20325;-59
2022/06/06 07:50:42;;;;;;;4.67;4.27;;;;;;;19.61;100.00;97186.38;4849350;29;20224;-59
2022/06/06 07:53:17;;;;;;;4.20;3.90;;;;;;;19.60;100.00;97190.13;4848197;29;20225;-58
2022/06/06 07:55:49;;;;;;;4.57;4.20;;;;;;;19.61;100.00;97197.13;4821903;29;20280;-57
2022/06/06 07:58:20;;;;;;;4.03;3.73;;;;;;;19.45;100.00;97200.56;4801875;29;20211;-56
2022/06/06 08:00:55;;;;;;;4.90;4.03;;;;;;;19.56;100.00;97191.66;4848261;29;20209;-56
2022/06/06 08:03:29;;;;;;;4.30;4.00;;;;;;;19.47;100.00;97196.59;4835155;29;20233;-59
2022/06/06 08:06:18;;;;;;;4.13;3.83;;;;;;;19.79;100.00;97193.41;4833729;29;21772;-60
2022/06/06 08:09:04;;;;;;;3.50;3.27;;;;;;;19.74;100.00;97197.88;4847014;29;20248;-59
2022/06/06 08:11:41;;;;;;;3.03;2.93;;;;;;;19.94;100.00;97200.94;4815427;29;20262;-55
2022/06/06 08:14:17;;;;;;;4.20;3.50;;;;;;;20.21;100.00;97191.38;4819499;29;20233;-60
2022/06/06 08:16:51;;;;;;;4.00;3.80;;;;;;;20.16;100.00;97199.38;4846126;29;20205;-55
2022/06/06 08:19:30;;;;;;;4.50;4.10;;;;;;;20.10;100.00;97191.22;4831170;29;20720;-57
2022/06/06 08:22:00;;;;;;;4.43;3.60;;;;;;;20.25;100.00;97189.81;4834462;29;21003;-58
2022/06/06 08:24:31;;;;;;;4.10;3.80;;;;;;;20.42;100.00;97194.34;4847469;29;21224;-56
2022/06/06 08:27:19;;;;;;;4.07;3.80;;;;;;;20.64;100.00;97202.47;4816094;29;20605;-57
2022/06/06 08:29:49;;;;;;;5.33;4.90;;;;;;;20.73;100.00;97206.38;4814300;29;20654;-59
2022/06/06 08:32:17;;;;;;;4.20;3.87;;;;;;;21.13;100.00;97196.38;4847391;29;20718;-57
2022/06/06 08:34:47;;;;;;;3.20;3.10;;;;;;;21.40;100.00;97206.38;4852957;29;20389;-55
2022/06/06 08:37:37;;;;;;;4.10;3.80;;;;;;;21.66;100.00;97218.25;4845743;29;20499;-59
2022/06/06 08:40:33;;;;;;;3.53;3.23;;;;;;;21.82;100.00;97202.22;4849558;29;20246;-59
2022/06/06 08:43:03;;;;;;;3.83;3.53;;;;;;;21.67;100.00;97211.78;4853185;29;20244;-58
2022/06/06 08:45:50;;;;;;;3.50;3.23;;;;;;;21.44;100.00;97215.56;4807969;29;20820;-53
2022/06/06 08:48:39;;;;;;;3.40;3.23;;;;;;;21.54;100.00;97210.28;4848295;29;20570;-56
2022/06/06 08:51:32;;;;;;;3.37;3.17;;;;;;;22.07;100.00;97208.88;4849023;29;20609;-54
2022/06/06 08:54:32;;;;;;;4.67;3.63;;;;;;;22.26;100.00;97211.97;4828664;29;20960;-56
2022/06/06 08:57:25;;;;;;;3.60;3.40;;;;;;;22.32;100.00;97218.25;4817766;29;20456;-51
2022/06/06 09:00:07;;;;;;;3.97;3.60;;;;;;;22.94;100.00;97207.81;4813666;29;20224;-54
2022/06/06 09:03:03;;;;;;;4.27;4.00;;;;;;;23.70;100.00;97208.31;4844918;29;20351;-59
2022/06/06 09:06:07;;;;;;;3.23;3.07;;;;;;;23.64;100.00;97207.47;4847262;29;20910;-59
2022/06/06 09:09:04;;;;;;;3.93;3.03;;;;;;;23.46;100.00;97214.22;4849977;29;20221;-57
2022/06/06 09:12:17;;;;;;;3.67;3.47;;;;;;;22.57;100.00;97211.41;4796460;29;20940;-56
2022/06/06 09:15:16;;;;;;;5.90;3.60;;;;;;;23.10;100.00;97219.47;4851576;29;20556;-54
2022/06/06 09:18:29;;;;;;;3.80;3.00;;;;;;;23.20;100.00;97216.84;4839728;29;20213;-57
2022/06/06 09:21:47;;;;;;;4.27;3.83;;;;;;;23.32;100.00;97219.34;4852219;29;20230;-58
2022/06/06 09:24:50;;;;;;;3.23;2.93;;;;;;;23.88;100.00;97208.88;4767704;29;20220;-59
2022/06/06 09:28:02;;;;;;;3.50;3.30;;;;;;;23.92;96.67;97204.56;4752694;29;20505;-58
2022/06/06 09:30:59;;;;;;;3.40;3.20;;;;;;;23.17;97.57;97205.72;4771299;29;20665;-49
2022/06/06 09:34:03;;;;;;;3.83;3.53;;;;;;;22.92;99.82;97209.94;4735020;29;20237;-57
2022/06/06 09:36:46;;;;;;;3.10;2.93;;;;;;;22.31;100.00;97206.63;4763062;29;20379;-55
2022/06/06 09:39:34;;;;;;;3.30;3.10;;;;;;;21.73;100.00;97201.88;4770714;29;20506;-55
2022/06/06 09:42:23;;;;;;;3.10;2.90;;;;;;;21.68;100.00;97193.72;4756301;29;20565;-57
2022/06/06 09:45:30;;;;;;;3.50;3.30;;;;;;;21.85;100.00;97196.31;4776018;29;20316;-52
2022/06/06 09:48:20;;;;;;;3.43;3.23;;;;;;;21.62;100.00;97198.22;4733963;29;20233;-56
2022/06/06 09:51:18;;;;;;;3.47;3.17;;;;;;;21.91;100.00;97200.66;4772666;29;20213;-56
2022/06/06 10:00:50;;;;;;;3.50;3.20;;;;;;;23.49;93.22;97186.66;4839229;29;20210;-57
2022/06/06 10:03:50;;;;;;;3.30;3.03;;;;;;;23.46;94.57;97183.69;4811945;29;20213;-56
2022/06/06 10:06:58;;;;;;;2.83;2.63;;;;;;;23.31;100.00;97190.69;4849149;29;20316;-58
2022/06/06 10:10:11;;;;;;;3.60;3.30;;;;;;;22.66;100.00;97194.44;4847746;29;20285;-56
2022/06/06 10:13:09;;;;;;;3.33;3.13;;;;;;;22.68;98.85;97203.09;4775189;29;20809;-59
2022/06/06 10:15:47;;;;;;;3.30;3.10;;;;;;;22.98;100.00;97192.72;4769528;29;20327;-51
2022/06/06 10:18:30;;;;;;;3.37;3.13;;;;;;;22.78;94.85;97188.84;4757152;29;20677;-57
2022/06/06 10:21:25;;;;;;;3.33;3.03;;;;;;;22.79;100.00;97192.34;4790660;29;20318;-56
2022/06/06 10:24:02;;;;;;;3.27;3.00;;;;;;;23.68;100.00;97183.44;4776308;29;20590;-59
2022/06/06 10:26:46;;;;;;;2.70;2.60;;;;;;;23.66;92.54;97183.69;4788792;29;20299;-55
2022/06/06 10:32:45;;;;;;;2.83;2.63;;;;;;;24.33;81.86;97171.25;4791917;29;20345;-55
2022/06/06 10:35:25;;;;;;;3.00;2.80;;;;;;;23.76;80.31;97168.56;4755216;29;20232;-58
2022/06/06 10:38:01;;;;;;;3.13;2.93;;;;;;;23.80;77.28;97169.66;4794832;29;20256;-58
2022/06/06 10:40:59;;;;;;;3.57;3.30;;;;;;;24.43;89.89;97171.22;4790931;29;20379;-52
2022/06/06 10:43:41;;;;;;;3.47;2.87;;;;;;;23.54;97.36;97164.22;4773080;29;20283;-52
2022/06/06 10:46:17;;;;;;;5.03;3.23;;;;;;;23.40;100.00;97166.63;4758110;29;20562;-56
2022/06/06 10:49:11;;;;;;;3.27;2.80;;;;;;;22.86;100.00;97168.63;4796126;29;21349;-55
2022/06/06 10:52:18;;;;;;;3.40;3.20;;;;;;;23.02;100.00;97164.09;4850599;29;20241;-58
2022/06/06 10:55:18;;;;;;;3.40;3.20;;;;;;;23.34;100.00;97160.41;4851269;29;20548;-53
2022/06/06 10:58:22;;;;;;;3.13;2.93;;;;;;;23.51;100.00;97152.06;4839998;29;20218;-53
2022/06/06 11:01:14;;;;;;;3.20;2.90;;;;;;;23.36;100.00;97154.72;4819063;29;20221;-56
2022/06/06 11:04:03;;;;;;;2.67;2.57;;;;;;;23.48;95.60;97146.38;4841963;29;20865;-57
2022/06/06 11:07:06;;;;;;;3.63;3.33;;;;;;;23.81;96.78;97147.72;4811172;29;20304;-59
2022/06/06 11:09:53;;;;;;;3.10;2.87;;;;;;;24.19;91.83;97149.34;4851031;29;20340;-55
2022/06/06 11:12:59;;;;;;;3.13;2.93;;;;;;;24.91;90.24;97142.94;4846946;29;20719;-56
2022/06/06 11:15:35;;;;;;;3.23;2.93;;;;;;;25.52;90.29;97143.66;4813745;29;20903;-54
2022/06/06 11:18:36;;;;;;;3.20;2.97;;;;;;;25.27;82.63;97140.03;4853486;29;20217;-58
2022/06/06 11:21:36;;;;;;;4.17;3.27;;;;;;;25.38;85.54;97133.44;4816384;29;20371;-59
2022/06/06 11:24:12;;;;;;;2.80;2.60;;;;;;;25.83;86.52;97127.97;4829707;29;20224;-61
2022/06/06 11:27:10;;;;;;;3.17;3.00;;;;;;;26.05;87.87;97121.25;4847443;29;20214;-57
2022/06/06 11:30:35;;;;;;;5.53;3.13;;;;;;;26.21;86.73;97129.28;4845493;29;20222;-59
2022/06/06 11:33:36;;;;;;;3.17;2.97;;;;;;;25.76;77.80;97135.63;4725481;30;20242;-56
2022/06/06 11:36:14;;;;;;;4.47;4.27;;;;;;;26.00;77.42;97134.88;4726784;30;20319;-52
2022/06/06 11:39:14;;;;;;;4.47;3.60;;;;;;;25.41;84.29;97135.56;4705831;30;20396;-58
2022/06/06 11:41:59;;;;;;;3.00;2.80;;;;;;;25.15;86.45;97135.72;4727194;30;20413;-56
2022/06/06 11:45:16;;;;;;;3.53;2.87;;;;;;;25.15;86.20;97126.81;4724035;30;20463;-50
2022/06/06 11:47:54;;;;;;;3.07;2.87;;;;;;;24.73;94.74;97130.78;4716132;30;20308;-57
2022/06/06 11:50:48;;;;;;;3.30;3.20;;;;;;;25.28;91.03;97130.81;4724115;30;20233;-58
2022/06/06 11:54:10;;;;;;;3.13;3.00;;;;;;;25.52;91.24;97125.50;4687727;30;20210;-55
2022/06/06 11:57:01;;;;;;;3.13;2.93;;;;;;;25.17;91.29;97118.38;4722523;30;20385;-58
2022/06/06 12:00:18;;;;;;;3.27;3.07;;;;;;;25.42;87.54;97110.09;4689302;30;20330;-57
2022/06/06 12:03:15;;;;;;;3.30;3.10;;;;;;;25.04;86.78;97107.06;4687195;30;20251;-55
2022/06/06 12:06:09;;;;;;;3.30;3.00;;;;;;;24.75;90.06;97099.63;4703622;30;20311;-56
2022/06/06 12:08:49;;;;;;;4.40;2.80;;;;;;;24.87;90.35;97098.53;4691291;29;20238;-48
2022/06/06 12:12:06;;;;;;;3.27;3.07;;;;;;;25.04;91.75;97096.22;4771968;29;22268;-59
2022/06/06 12:15:08;;;;;;;3.20;3.03;;;;;;;25.64;87.79;97099.91;4723631;30;21141;-57
2022/06/06 12:17:47;;;;;;;3.27;2.97;;;;;;;25.45;86.77;97087.03;4674700;30;20228;-56
2022/06/06 12:20:53;;;;;;;3.30;3.10;;;;;;;25.37;93.25;97087.59;4743124;30;20253;-58
2022/06/06 12:23:33;;;;;;;3.17;2.97;;;;;;;24.95;94.68;97085.16;4695876;30;20289;-59
2022/06/06 12:26:14;;;;;;;3.00;2.90;;;;;;;25.03;96.83;97089.19;4728771;30;20353;-56
2022/06/06 12:29:16;;;;;;;3.10;3.00;;;;;;;24.91;94.99;97083.31;4744382;30;20209;-57
2022/06/06 12:31:59;;;;;;;3.10;2.90;;;;;;;24.99;90.47;97075.38;4700951;30;20934;-58
2022/06/06 12:34:31;;;;;;;3.60;3.40;;;;;;;25.38;86.59;97072.94;4723944;30;20225;-59
2022/06/06 12:37:07;;;;;;;3.77;3.57;;;;;;;24.55;96.43;97076.97;4719183;30;20710;-58
2022/06/06 12:39:51;;;;;;;3.80;3.50;;;;;;;24.73;89.22;97066.56;4732560;29;20216;-55
2022/06/06 12:42:26;;;;;;;3.93;3.10;;;;;;;26.05;91.38;97074.31;4757541;29;20888;-57
2022/06/06 12:45:26;;;;;;;3.37;3.17;;;;;;;26.78;69.01;97071.56;4773831;29;20265;-58
2022/06/06 12:48:07;;;;;;;3.53;3.33;;;;;;;25.67;83.33;97064.91;4745556;29;20232;-59
2022/06/06 12:50:46;;;;;;;3.30;2.93;;;;;;;25.71;74.76;97063.22;4819979;29;20221;-60
2022/06/06 12:54:01;;;;;;;5.63;2.70;;;;;;;24.71;78.07;97058.75;4826204;29;20939;-56